Etusivu
METAR-TAF:

METAR-TAF

Lentoasemat :

Delta County Airport

Escanaba, Michigan, Yhdysvallat

Leveyspiiri: 45-45N, Pituuspiiri: 087-02W, korkeus merenpinnasta: 180 m

Tämänhetkinen sää

Tämä raportti tehtiin 28 minuuttia sitten, kello 18.21 UTC
Tuuli 6 kn koillisesta
Lämpötila -1°C
Kosteus 80%
Ilmanpaine 1005 hPa
Näkyvyys: 16.1 km
Muutamia pilviä 2300 ft:n korkeudessa
Pilvistä 3500 ft:n korkeudessa

METAR: KESC 171821Z AUTO 04006KT 10SM FEW023 OVC035 M01/M04 A2968 RMK AO2 UPB09E11SNE09 P0000 FZRANO

Aika: 13:49 (18:49 UTC)


TAF: puuttuu

Säähavainnot ja -ennusteet yli 4000 lentoasemalta (METAR- ja TAF-raportit).

Käytössä olevat sääasemat on merkitty karttaan keltaisilla ja punaisilla pisteillä.

Aseta hiiri pisteen päälle nähdäksesi sääaseman nimen.

Klikkaa sitten nähdäksesi säähavainnot ja -ennusteet.

Kartan vaihtaminen: klikkaa mustalla rastilla varustettuja vihreitä pisteitä, niin voit zoomata sisään; viivalla varustettua vihreää pistettä, niin voit zoomata ulos tai vihreitä nuolia, niin pääset viereisille kartoille.


METAR-TAF: